Time;durP1;ratioP1;P1;durP2;ratioP2;P2;SDS_P1;SDS_P2;PMS_P1;PMS_P2;Temp;Humidity;BMP_temperature;BMP_pressure;BME280_temperature;BME280_humidity;BME280_pressure;Samples;Min_cycle;Max_cycle;Signal;HPM_P1;HPM_P2
2023/06/18 00:01:03;;;;;;;;;10.00;10.00;;;;;22.80;58.53;101342.69;5015253;28;8843;-67
2023/06/18 00:03:29;;;;;;;;;12.00;12.00;;;;;22.82;58.64;101345.19;5015864;28;8866;-68
2023/06/18 00:05:56;;;;;;;;;11.50;10.25;;;;;22.81;58.64;101343.50;5039778;28;8907;-67
2023/06/18 00:08:23;;;;;;;;;13.75;11.00;;;;;22.82;58.43;101347.94;5031106;28;8835;-68
2023/06/18 00:10:49;;;;;;;;;15.75;14.00;;;;;22.78;58.04;101350.38;5026246;28;8916;-68
2023/06/18 00:13:16;;;;;;;;;15.75;15.75;;;;;22.70;58.24;101348.94;5021125;28;8833;-68
2023/06/18 00:15:43;;;;;;;;;15.25;14.50;;;;;22.59;58.05;101338.97;5035967;28;8857;-67
2023/06/18 00:18:09;;;;;;;;;17.50;15.75;;;;;22.47;58.22;101352.03;5037810;28;8972;-67
2023/06/18 00:20:36;;;;;;;;;19.67;18.00;;;;;22.39;59.27;101345.09;5041416;28;8833;-67
2023/06/18 00:23:02;;;;;;;;;20.50;18.00;;;;;22.37;58.77;101347.31;5033855;28;9001;-67
2023/06/18 00:25:29;;;;;;;;;16.00;15.75;;;;;22.32;59.26;101341.78;5040761;28;8895;-68
2023/06/18 00:27:55;;;;;;;;;13.75;13.00;;;;;22.34;59.60;101344.25;5032074;28;9550;-67
2023/06/18 00:30:22;;;;;;;;;15.50;14.00;;;;;22.43;59.22;101345.41;5015623;28;8851;-67
2023/06/18 00:32:51;;;;;;;;;16.00;15.00;;;;;22.44;59.09;101338.84;5043939;28;8840;-67
2023/06/18 00:35:18;;;;;;;;;15.75;15.75;;;;;22.38;59.13;101337.97;5030007;28;8998;-67
2023/06/18 00:37:44;;;;;;;;;14.25;13.75;;;;;22.34;59.25;101345.06;5030215;28;8923;-68
2023/06/18 00:40:17;;;;;;;;;21.75;18.50;;;;;22.34;59.54;101333.28;5031455;28;8836;-67
2023/06/18 00:42:44;;;;;;;;;18.00;15.67;;;;;22.35;59.67;101337.66;5029805;28;8825;-67
2023/06/18 00:45:12;;;;;;;;;20.33;17.67;;;;;22.30;59.38;101330.22;5029717;28;8998;-67
2023/06/18 00:47:44;;;;;;;;;14.67;14.67;;;;;22.27;59.97;101328.00;5017660;28;9736;-67
2023/06/18 00:50:15;;;;;;;;;11.00;8.00;;;;;22.32;59.82;101336.28;5012330;28;8946;-67
2023/06/18 00:52:47;;;;;;;;;15.50;13.25;;;;;22.38;59.93;101331.66;5010293;28;8866;-69
2023/06/18 00:55:16;;;;;;;;;16.00;14.75;;;;;22.41;59.62;101331.97;5009795;28;8849;-67
2023/06/18 00:57:49;;;;;;;;;18.00;16.25;;;;;22.44;59.59;101330.59;5011594;28;8839;-67
2023/06/18 01:00:17;;;;;;;;;17.50;16.25;;;;;22.43;59.42;101324.28;5019573;28;9433;-67
2023/06/18 01:02:45;;;;;;;;;14.00;13.75;;;;;22.43;59.46;101324.28;5038823;28;8843;-67
2023/06/18 01:05:14;;;;;;;;;15.00;14.25;;;;;22.45;59.45;101321.31;5024584;28;8898;-67
2023/06/18 01:07:42;;;;;;;;;8.25;8.25;;;;;22.44;59.31;101320.50;5019243;28;8842;-67
2023/06/18 01:10:17;;;;;;;;;10.75;9.50;;;;;22.43;59.29;101320.72;5029569;28;8851;-67
2023/06/18 01:12:48;;;;;;;;;9.25;9.25;;;;;22.41;58.97;101322.91;5029850;28;8845;-67
2023/06/18 01:15:16;;;;;;;;;12.25;12.25;;;;;22.39;58.95;101325.09;5013080;28;8900;-67
2023/06/18 01:17:47;;;;;;;;;12.50;12.50;;;;;22.38;58.82;101321.50;5029435;28;9708;-67
2023/06/18 01:20:17;;;;;;;;;12.75;11.75;;;;;22.38;58.47;101318.78;5029597;28;8847;-67
2023/06/18 01:23:01;;;;;;;;;15.50;14.50;;;;;22.34;57.99;101320.38;5030111;28;8820;-67
2023/06/18 01:25:36;;;;;;;;;15.00;14.75;;;;;22.24;58.03;101308.47;5029380;28;8850;-67
2023/06/18 01:28:07;;;;;;;;;12.67;12.00;;;;;22.17;57.61;101305.97;5029443;28;9678;-67
2023/06/18 01:30:37;;;;;;;;;15.25;13.50;;;;;22.17;57.78;101306.81;5015798;28;9054;-67
2023/06/18 01:33:04;;;;;;;;;15.50;14.00;;;;;22.18;57.61;101299.41;4993490;28;9632;-67
2023/06/18 01:35:30;;;;;;;;;13.25;11.25;;;;;22.19;57.37;101304.63;5009408;28;9002;-67
2023/06/18 01:38:24;;;;;;;;;14.25;12.75;;;;;22.21;57.26;101299.72;5010646;28;8862;-67
2023/06/18 01:41:12;;;;;;;;;11.25;11.00;;;;;22.24;57.11;101305.75;5014484;28;8839;-67
2023/06/18 01:43:48;;;;;;;;;12.50;12.25;;;;;22.20;56.77;101300.81;5010700;28;8916;-67
2023/06/18 01:46:23;;;;;;;;;13.33;12.00;;;;;22.20;56.83;101299.94;5010357;28;8847;-67
2023/06/18 01:49:06;;;;;;;;;13.00;11.75;;;;;22.17;56.57;101304.06;5011218;28;8921;-67
2023/06/18 01:51:35;;;;;;;;;12.75;11.75;;;;;22.13;56.58;101291.97;5029423;28;8844;-67
2023/06/18 01:54:03;;;;;;;;;11.50;11.00;;;;;22.12;56.46;101290.28;5032416;28;8865;-67
2023/06/18 01:56:30;;;;;;;;;12.75;12.25;;;;;22.11;56.43;101296.81;5035438;28;8849;-68
2023/06/18 01:58:57;;;;;;;;;14.25;11.25;;;;;22.12;56.27;101289.44;5032762;28;8960;-67
2023/06/18 02:01:26;;;;;;;;;14.00;13.00;;;;;22.08;56.05;101293.78;5018727;28;8859;-68
2023/06/18 02:03:52;;;;;;;;;12.00;12.00;;;;;22.06;55.75;101290.47;5021298;28;8841;-66
2023/06/18 02:06:19;;;;;;;;;7.00;6.50;;;;;22.02;55.64;101284.69;5039785;28;8917;-68
2023/06/18 02:08:46;;;;;;;;;13.25;10.00;;;;;22.00;55.80;101289.63;5035005;28;8813;-67
2023/06/18 02:11:12;;;;;;;;;10.25;9.00;;;;;21.95;55.51;101289.53;5024252;28;8847;-67
2023/06/18 02:13:39;;;;;;;;;13.25;12.00;;;;;21.90;55.30;101281.28;5036244;28;8934;-67
2023/06/18 02:16:05;;;;;;;;;14.00;12.75;;;;;21.87;55.13;101284.53;5034952;28;8833;-67
2023/06/18 02:18:32;;;;;;;;;9.25;9.25;;;;;21.86;55.24;101285.63;5028819;28;8959;-67
2023/06/18 02:20:59;;;;;;;;;10.50;10.50;;;;;21.86;54.85;101275.50;5026876;28;8835;-66
2023/06/18 02:23:26;;;;;;;;;10.00;10.00;;;;;21.86;54.67;101280.16;5010308;28;8839;-67
2023/06/18 02:25:52;;;;;;;;;15.33;15.33;;;;;21.85;54.74;101278.50;5008833;28;8843;-67
2023/06/18 02:28:19;;;;;;;;;13.33;11.67;;;;;21.81;54.20;101274.63;5010524;28;8907;-66
2023/06/18 02:30:46;;;;;;;;;14.75;12.50;;;;;21.81;54.34;101269.13;5009057;28;8996;-66
2023/06/18 02:33:17;;;;;;;;;15.25;12.00;;;;;21.81;54.19;101269.97;5023406;28;8879;-66
2023/06/18 02:35:44;;;;;;;;;8.00;8.00;;;;;21.79;54.24;101272.13;5026337;28;8832;-67
2023/06/18 02:38:10;;;;;;;;;12.00;12.00;;;;;21.76;53.91;101266.34;5044754;28;8854;-67
2023/06/18 02:40:37;;;;;;;;;9.67;9.67;;;;;21.75;54.14;101272.91;5027338;28;8836;-67
2023/06/18 02:43:05;;;;;;;;;12.67;12.67;;;;;21.70;54.00;101266.28;5028621;28;9001;-67
2023/06/18 02:45:32;;;;;;;;;11.75;11.75;;;;;21.70;54.16;101263.53;5029583;28;8936;-66
2023/06/18 02:47:59;;;;;;;;;15.00;15.00;;;;;21.68;54.07;101265.72;5029882;28;8816;-66
2023/06/18 02:50:26;;;;;;;;;15.00;13.33;;;;;21.67;53.77;101261.34;5028315;28;9054;-67
2023/06/18 02:52:54;;;;;;;;;12.00;11.00;;;;;21.65;53.64;101258.00;5024508;28;8936;-66
2023/06/18 02:55:22;;;;;;;;;9.75;9.25;;;;;21.63;53.66;101259.34;5012508;28;8898;-67
2023/06/18 02:57:49;;;;;;;;;11.25;10.75;;;;;21.62;53.73;101261.25;5029625;28;9705;-67
2023/06/18 03:00:16;;;;;;;;;10.00;10.00;;;;;21.59;53.43;101256.31;5029833;28;8932;-67
2023/06/18 03:02:44;;;;;;;;;10.25;9.75;;;;;21.57;53.57;101261.22;5028446;28;8924;-66
2023/06/18 03:05:15;;;;;;;;;10.25;9.75;;;;;21.54;53.26;101250.75;5027728;28;8828;-67
2023/06/18 03:07:43;;;;;;;;;8.75;8.75;;;;;21.55;53.45;101257.06;5012348;28;8889;-66
2023/06/18 03:10:11;;;;;;;;;8.75;8.75;;;;;21.54;53.39;101255.41;4996588;28;8820;-66
2023/06/18 03:12:38;;;;;;;;;9.75;9.50;;;;;21.52;52.98;101257.59;4996131;28;8847;-67
2023/06/18 03:15:18;;;;;;;;;10.50;10.50;;;;;21.51;52.89;101248.53;4997603;28;8847;-66
2023/06/18 03:17:45;;;;;;;;;10.00;9.25;;;;;21.51;52.91;101254.00;5012043;28;8843;-66
2023/06/18 03:20:12;;;;;;;;;10.00;9.75;;;;;21.50;52.77;101255.09;5010977;28;8826;-67
2023/06/18 03:22:39;;;;;;;;;10.25;9.50;;;;;21.50;53.01;101252.38;5015647;28;8820;-66
2023/06/18 03:25:06;;;;;;;;;8.25;8.25;;;;;21.49;52.54;101250.72;5031726;28;8828;-67
2023/06/18 03:27:33;;;;;;;;;10.75;9.00;;;;;21.49;52.61;101250.72;5033007;28;8852;-67
2023/06/18 03:30:00;;;;;;;;;10.75;9.00;;;;;21.44;52.34;101253.41;5031651;28;8903;-68
2023/06/18 03:32:29;;;;;;;;;10.00;10.00;;;;;21.43;52.45;101257.19;5031735;28;8853;-67
2023/06/18 03:34:57;;;;;;;;;8.75;8.75;;;;;21.42;52.60;101256.38;5031217;28;8848;-67
2023/06/18 03:37:24;;;;;;;;;10.50;10.50;;;;;21.42;52.52;101258.28;5034107;28;8909;-68
2023/06/18 03:39:50;;;;;;;;;8.00;7.50;;;;;21.39;52.60;101261.53;5039091;28;8826;-66
2023/06/18 03:42:17;;;;;;;;;8.50;8.00;;;;;21.36;52.80;101256.59;5036003;28;8829;-67
2023/06/18 03:44:43;;;;;;;;;9.50;9.25;;;;;21.35;52.98;101252.19;5032424;28;8832;-67
2023/06/18 03:47:10;;;;;;;;;11.25;10.25;;;;;21.35;52.56;101260.41;5031251;28;8844;-67
2023/06/18 03:49:37;;;;;;;;;6.75;6.00;;;;;21.32;52.83;101255.41;5031567;28;8842;-66
2023/06/18 03:52:04;;;;;;;;;9.00;9.00;;;;;21.31;52.82;101260.06;5014945;28;8820;-65
2023/06/18 03:54:31;;;;;;;;;10.25;10.00;;;;;21.30;52.82;101263.06;5030949;28;8837;-67
2023/06/18 03:57:00;;;;;;;;;8.25;8.25;;;;;21.30;53.16;101266.63;5038847;28;8960;-66
2023/06/18 03:59:27;;;;;;;;;13.00;10.75;;;;;21.31;53.29;101265.56;5035336;28;8840;-67
2023/06/18 04:01:53;;;;;;;;;8.00;8.00;;;;;21.29;53.34;101270.44;5046626;28;8860;-66
2023/06/18 04:04:20;;;;;;;;;12.75;10.50;;;;;21.28;53.22;101271.53;5045812;28;8871;-68
2023/06/18 04:06:47;;;;;;;;;8.00;8.00;;;;;21.28;53.36;101268.78;5032981;28;9610;-67
2023/06/18 04:09:14;;;;;;;;;10.50;9.75;;;;;21.26;53.51;101264.66;5041748;28;8806;-67
2023/06/18 04:11:42;;;;;;;;;11.33;10.33;;;;;21.27;53.57;101266.28;5041061;28;8972;-67
2023/06/18 04:14:09;;;;;;;;;11.75;9.75;;;;;21.29;53.60;101272.34;5035998;28;9000;-67
2023/06/18 04:16:36;;;;;;;;;10.25;10.25;;;;;21.28;53.63;101270.72;5031461;28;8967;-67
2023/06/18 04:19:02;;;;;;;;;11.33;11.00;;;;;21.27;53.58;101263.56;5041129;28;8853;-67
2023/06/18 04:21:29;;;;;;;;;9.75;9.00;;;;;21.28;53.67;101270.72;5048727;28;8988;-68
2023/06/18 04:23:57;;;;;;;;;10.00;10.00;;;;;21.26;53.71;101270.94;5048688;28;8850;-66
2023/06/18 04:26:24;;;;;;;;;10.67;10.00;;;;;21.29;53.87;101272.34;5030744;28;9613;-66
2023/06/18 04:28:51;;;;;;;;;7.75;6.25;;;;;21.27;53.85;101278.09;5039066;28;9039;-67
2023/06/18 04:31:18;;;;;;;;;8.75;8.25;;;;;21.23;53.72;101275.03;5030688;28;9662;-66
2023/06/18 04:33:45;;;;;;;;;7.00;7.00;;;;;21.20;53.96;101275.53;5039174;28;8897;-66
2023/06/18 04:36:14;;;;;;;;;9.00;9.00;;;;;21.20;54.11;101270.06;5030958;28;8845;-66
2023/06/18 04:38:43;;;;;;;;;9.00;9.00;;;;;21.20;53.96;101281.03;5046171;28;8945;-66
2023/06/18 04:41:10;;;;;;;;;8.00;6.00;;;;;21.20;53.93;101272.81;5014294;28;9046;-66
2023/06/18 04:43:36;;;;;;;;;9.00;8.33;;;;;21.22;53.81;101278.00;5038082;28;8917;-66
2023/06/18 04:46:03;;;;;;;;;8.67;8.67;;;;;21.23;53.99;101269.56;5037437;28;8921;-66
2023/06/18 04:48:34;;;;;;;;;9.00;9.00;;;;;21.20;54.19;101275.53;5035761;28;8952;-66
2023/06/18 04:51:01;;;;;;;;;10.67;7.67;;;;;21.19;54.07;101271.16;5037930;28;8967;-66
2023/06/18 04:53:29;;;;;;;;;10.00;9.67;;;;;21.17;54.10;101273.31;5046894;28;9071;-67
2023/06/18 04:55:56;;;;;;;;;9.67;9.00;;;;;21.17;54.01;101276.03;5034176;28;9074;-67
2023/06/18 04:58:24;;;;;;;;;8.33;8.33;;;;;21.17;54.02;101269.75;5026343;28;9818;-66
2023/06/18 05:00:53;;;;;;;;;7.67;7.00;;;;;21.18;54.17;101269.47;5038507;28;9095;-67
2023/06/18 05:03:19;;;;;;;;;8.50;8.25;;;;;21.20;54.12;101278.28;5028528;28;9047;-66
2023/06/18 05:05:46;;;;;;;;;9.50;8.75;;;;;21.23;54.39;101268.75;5031855;28;8919;-67
2023/06/18 05:08:13;;;;;;;;;7.33;7.33;;;;;21.26;54.15;101267.38;5037314;28;8869;-67
2023/06/18 05:10:39;;;;;;;;;11.00;8.33;;;;;21.29;54.09;101262.22;5047967;28;8834;-66
2023/06/18 05:13:06;;;;;;;;;12.00;12.00;;;;;21.32;53.74;101260.91;5035978;28;8916;-67
2023/06/18 05:15:32;;;;;;;;;9.67;8.67;;;;;21.35;53.99;101264.00;5054432;28;9027;-67
2023/06/18 05:18:00;;;;;;;;;14.00;10.00;;;;;21.37;54.07;101270.03;5043403;28;8931;-66
2023/06/18 05:20:27;;;;;;;;;10.33;8.33;;;;;21.39;53.94;101272.50;5041156;28;9042;-67
2023/06/18 05:22:54;;;;;;;;;7.25;7.00;;;;;21.40;53.78;101265.97;5049169;28;8891;-67
2023/06/18 05:25:23;;;;;;;;;11.33;9.00;;;;;21.37;53.82;101269.19;5046596;28;8806;-67
2023/06/18 05:27:49;;;;;;;;;11.25;8.00;;;;;21.39;53.86;101270.63;5041051;28;9033;-67
2023/06/18 05:30:17;;;;;;;;;9.33;9.00;;;;;21.40;53.98;101271.44;5021041;28;8822;-67
2023/06/18 05:32:44;;;;;;;;;8.33;8.33;;;;;21.46;53.92;101275.88;5038021;28;8988;-67
2023/06/18 05:35:14;;;;;;;;;7.00;6.50;;;;;21.53;53.88;101281.16;5009389;28;8923;-66
2023/06/18 05:37:46;;;;;;;;;10.67;8.67;;;;;21.56;53.69;101281.47;5010898;28;8844;-67
2023/06/18 05:40:13;;;;;;;;;8.00;8.00;;;;;21.64;53.95;101281.03;5041025;28;8913;-67
2023/06/18 05:42:42;;;;;;;;;11.67;8.00;;;;;21.78;53.55;101278.69;5022107;28;8977;-66
2023/06/18 05:45:10;;;;;;;;;10.00;10.00;;;;;21.92;53.15;101284.59;5043031;28;8932;-66
2023/06/18 05:47:37;;;;;;;;;12.25;11.75;;;;;21.94;52.70;101283.25;5032771;28;9682;-66
2023/06/18 05:50:07;;;;;;;;;11.00;10.75;;;;;22.02;52.58;101284.69;5048999;28;8830;-67
2023/06/18 05:52:34;;;;;;;;;9.67;9.67;;;;;22.11;52.63;101276.81;5032590;28;8834;-67
2023/06/18 05:55:01;;;;;;;;;12.50;10.25;;;;;22.10;51.98;101286.97;5048501;28;8929;-66
2023/06/18 05:57:27;;;;;;;;;10.00;9.25;;;;;22.08;52.19;101285.56;5011583;28;8830;-68
2023/06/18 05:59:54;;;;;;;;;11.75;10.50;;;;;22.10;51.93;101288.88;5009327;28;8823;-68
2023/06/18 06:02:21;;;;;;;;;11.00;10.50;;;;;22.11;52.24;101290.53;5009267;28;8831;-66
2023/06/18 06:04:47;;;;;;;;;13.50;11.75;;;;;22.12;52.13;101287.53;5025101;28;8835;-67
2023/06/18 06:07:14;;;;;;;;;11.25;11.25;;;;;22.16;52.11;101288.69;5010416;28;8831;-66
2023/06/18 06:09:41;;;;;;;;;13.25;11.25;;;;;22.17;51.97;101282.13;5009054;28;8831;-66
2023/06/18 06:12:08;;;;;;;;;12.00;10.00;;;;;22.22;51.87;101281.34;5009134;28;8835;-69
2023/06/18 06:14:35;;;;;;;;;9.75;9.75;;;;;22.28;52.03;101284.94;5028378;28;8848;-67
2023/06/18 06:17:01;;;;;;;;;9.75;9.75;;;;;22.29;52.04;101287.44;5028907;28;8959;-67
2023/06/18 06:19:28;;;;;;;;;12.50;9.75;;;;;22.34;52.15;101283.91;5012442;28;8844;-67
2023/06/18 06:21:55;;;;;;;;;11.75;11.00;;;;;22.39;52.13;101292.16;5028694;28;8832;-67
2023/06/18 06:24:23;;;;;;;;;9.75;9.00;;;;;22.41;52.05;101285.34;5028417;28;8971;-67
2023/06/18 06:26:50;;;;;;;;;11.75;9.75;;;;;22.44;51.88;101283.97;5012470;28;8828;-67
2023/06/18 06:29:16;;;;;;;;;14.50;13.00;;;;;22.45;51.94;101285.66;5028662;28;8836;-67
2023/06/18 06:31:43;;;;;;;;;12.50;11.50;;;;;22.46;51.92;101279.88;5028726;28;8873;-67
2023/06/18 06:34:11;;;;;;;;;16.00;14.67;;;;;22.49;52.02;101270.31;5012633;28;8925;-67
2023/06/18 06:36:38;;;;;;;;;13.25;12.75;;;;;22.47;51.25;101275.22;5030160;28;8944;-67
2023/06/18 06:39:05;;;;;;;;;15.50;15.50;;;;;22.46;51.44;101279.06;5012338;28;8946;-67
2023/06/18 06:41:32;;;;;;;;;11.00;11.00;;;;;22.50;51.42;101280.19;5026273;28;8850;-67
2023/06/18 06:44:01;;;;;;;;;17.33;17.00;;;;;22.54;51.24;101280.50;5042602;28;8894;-67
2023/06/18 06:46:53;;;;;;;;;12.25;12.25;;;;;22.58;51.11;101284.34;5025111;28;8957;-67
2023/06/18 06:49:32;;;;;;;;;13.25;13.25;;;;;22.63;51.17;101282.47;5021286;28;8827;-67
2023/06/18 06:52:17;;;;;;;;;14.50;13.50;;;;;22.71;51.10;101292.94;5040472;28;8824;-67
2023/06/18 06:54:43;;;;;;;;;13.50;11.00;;;;;22.79;51.04;101290.81;5048023;28;8849;-67
2023/06/18 06:57:10;;;;;;;;;12.25;10.25;;;;;22.83;50.99;101298.25;5037679;28;8830;-67
2023/06/18 06:59:37;;;;;;;;;9.25;9.25;;;;;22.86;50.78;101294.16;5031574;28;8872;-67
2023/06/18 07:02:04;;;;;;;;;9.25;9.00;;;;;22.86;50.60;101297.72;5019511;28;8844;-67
2023/06/18 07:04:30;;;;;;;;;8.75;8.75;;;;;22.86;50.46;101302.38;5026627;28;8849;-68
2023/06/18 07:06:58;;;;;;;;;10.00;9.50;;;;;22.82;50.35;101321.31;5019549;28;8820;-67
2023/06/18 07:09:25;;;;;;;;;13.50;11.75;;;;;22.79;50.65;101345.69;5033253;28;8847;-67
2023/06/18 07:11:51;;;;;;;;;12.25;10.75;;;;;22.71;49.92;101347.03;5036079;28;8833;-67
2023/06/18 07:14:18;;;;;;;;;17.00;14.50;;;;;22.66;49.74;101314.06;5026727;28;9529;-68
2023/06/18 07:16:44;;;;;;;;;11.75;11.25;;;;;22.62;50.15;101312.94;5053160;28;8806;-67
2023/06/18 07:19:11;;;;;;;;;10.75;10.00;;;;;22.61;50.25;101314.84;5053115;28;8841;-67
2023/06/18 07:21:37;;;;;;;;;12.75;11.25;;;;;22.61;50.04;101333.22;5048586;28;8830;-66
2023/06/18 07:24:04;;;;;;;;;13.25;13.25;;;;;22.58;49.93;101325.53;5039618;28;8832;-67
2023/06/18 07:26:31;;;;;;;;;16.33;12.33;;;;;22.56;49.96;101308.47;5048841;28;9626;-66
2023/06/18 07:28:57;;;;;;;;;11.00;11.00;;;;;22.55;50.58;101310.41;5052834;28;9636;-66
2023/06/18 07:31:24;;;;;;;;;12.50;12.00;;;;;22.58;50.57;101312.63;5048413;28;8834;-67
2023/06/18 07:33:51;;;;;;;;;11.50;10.75;;;;;22.62;50.80;101323.91;5043322;28;9583;-67
2023/06/18 07:36:17;;;;;;;;;11.67;11.67;;;;;22.66;50.79;101334.09;5029855;28;8820;-67
2023/06/18 07:38:43;;;;;;;;;14.50;11.50;;;;;22.65;50.40;101320.66;5035765;28;9689;-66
2023/06/18 07:41:10;;;;;;;;;18.50;16.25;;;;;22.67;50.72;101313.78;5034743;28;8853;-67
2023/06/18 07:43:37;;;;;;;;;14.50;13.00;;;;;22.68;50.69;101320.91;5040889;28;9555;-68
2023/06/18 07:46:03;;;;;;;;;14.33;14.00;;;;;22.69;50.17;101325.34;5031782;28;8828;-66
2023/06/18 07:48:30;;;;;;;;;14.00;13.00;;;;;22.71;49.77;101320.41;5026692;28;8926;-66
2023/06/18 07:50:56;;;;;;;;;12.50;11.00;;;;;22.75;49.58;101308.91;5042477;28;8826;-67
2023/06/18 07:53:23;;;;;;;;;13.00;12.00;;;;;22.79;49.47;101299.88;5029725;28;8817;-67
2023/06/18 07:55:50;;;;;;;;;12.75;11.75;;;;;22.85;49.33;101308.94;5028098;28;8932;-67
2023/06/18 07:58:16;;;;;;;;;12.75;11.00;;;;;22.92;49.60;101306.84;5037939;28;8848;-66
2023/06/18 08:00:43;;;;;;;;;12.25;10.75;;;;;22.99;49.41;101310.19;5040927;28;8836;-69
2023/06/18 08:03:09;;;;;;;;;12.00;12.00;;;;;23.01;48.79;101310.75;5041009;28;8908;-67
2023/06/18 08:05:36;;;;;;;;;10.50;10.50;;;;;23.07;48.69;101308.84;5031948;28;8855;-69
2023/06/18 08:08:02;;;;;;;;;15.00;15.00;;;;;23.10;48.38;101303.66;5030948;28;8817;-68
2023/06/18 08:10:29;;;;;;;;;13.75;13.00;;;;;23.17;48.21;101304.25;5032044;28;9044;-69
2023/06/18 08:12:56;;;;;;;;;10.50;10.50;;;;;23.25;48.02;101304.81;5030763;28;9595;-68
2023/06/18 08:15:22;;;;;;;;;8.75;8.75;;;;;23.33;47.85;101301.53;5031956;28;8824;-68
2023/06/18 08:17:49;;;;;;;;;9.00;9.00;;;;;23.38;48.09;101298.84;5032129;28;8946;-68
2023/06/18 08:20:15;;;;;;;;;14.50;11.75;;;;;23.44;47.06;101303.25;5016825;28;8978;-68
2023/06/18 08:22:42;;;;;;;;;13.50;13.50;;;;;23.48;47.32;101292.56;5015891;28;9602;-68
2023/06/18 08:25:08;;;;;;;;;10.75;10.75;;;;;23.52;47.93;101291.75;5037993;28;8829;-68
2023/06/18 08:27:35;;;;;;;;;9.75;9.50;;;;;23.55;47.77;101290.38;5028264;28;9503;-68
2023/06/18 08:30:03;;;;;;;;;10.25;10.25;;;;;23.62;47.69;101278.03;5041542;28;8857;-69
2023/06/18 08:32:29;;;;;;;;;13.00;12.50;;;;;23.68;47.98;101289.88;5026831;28;9519;-69
2023/06/18 08:34:56;;;;;;;;;10.50;10.50;;;;;23.73;48.17;101289.06;5030982;28;8851;-67
2023/06/18 08:37:23;;;;;;;;;17.25;13.75;;;;;23.78;47.26;101286.31;5030311;28;8863;-68
2023/06/18 08:39:49;;;;;;;;;10.75;9.50;;;;;23.82;47.63;101282.78;5041740;28;8834;-68
2023/06/18 08:42:20;;;;;;;;;10.50;10.50;;;;;23.89;47.83;101277.00;5028793;28;8947;-68
2023/06/18 08:44:47;;;;;;;;;11.00;10.50;;;;;23.97;46.90;101278.41;5034603;28;8826;-67
2023/06/18 08:47:15;;;;;;;;;10.50;10.25;;;;;24.02;46.93;101273.72;5022386;28;8850;-68
2023/06/18 08:49:43;;;;;;;;;10.75;10.25;;;;;24.06;46.72;101283.06;5039568;28;9152;-68
2023/06/18 08:52:12;;;;;;;;;11.00;10.00;;;;;24.11;46.39;101280.34;5042519;28;9753;-68
2023/06/18 08:54:39;;;;;;;;;10.25;10.25;;;;;24.20;46.26;101277.03;5024289;28;8884;-68
2023/06/18 08:57:26;;;;;;;;;11.00;10.50;;;;;24.25;45.96;101272.34;5044492;28;8821;-68
2023/06/18 08:59:54;;;;;;;;;15.00;14.25;;;;;24.30;45.54;101264.09;5036709;28;8971;-69
2023/06/18 09:02:21;;;;;;;;;14.00;14.00;;;;;24.31;45.17;101274.03;5038247;28;8820;-69
2023/06/18 09:04:49;;;;;;;;;12.25;12.25;;;;;24.30;45.11;101271.53;5023121;28;8824;-68
2023/06/18 09:07:17;;;;;;;;;15.00;13.00;;;;;24.36;45.20;101274.00;5044799;28;8830;-68
2023/06/18 09:09:44;;;;;;;;;18.00;17.00;;;;;24.34;45.21;101272.63;5049728;28;8822;-68
2023/06/18 09:12:10;;;;;;;;;12.50;12.50;;;;;24.31;44.67;101276.78;5049719;28;8822;-68
2023/06/18 09:14:37;;;;;;;;;18.50;18.50;;;;;24.20;43.37;101271.56;5030483;28;8816;-67
2023/06/18 09:17:04;;;;;;;;;13.75;13.75;;;;;24.23;44.59;101262.75;5032055;28;8923;-67
2023/06/18 09:19:32;;;;;;;;;14.25;14.25;;;;;24.21;44.34;101271.25;5041289;28;8869;-68
2023/06/18 09:22:16;;;;;;;;;13.50;12.75;;;;;24.26;44.73;101270.44;5036891;28;8824;-69
2023/06/18 09:24:56;;;;;;;;;13.00;12.00;;;;;24.24;45.15;101265.22;5030331;28;8903;-68
2023/06/18 09:27:30;;;;;;;;;13.50;12.75;;;;;24.25;45.04;101263.28;5026958;28;8820;-69
2023/06/18 09:29:57;;;;;;;;;11.00;10.50;;;;;24.28;45.68;101265.50;5025898;28;8822;-67
2023/06/18 09:32:24;;;;;;;;;22.33;17.33;;;;;24.24;44.83;101267.16;5030220;28;8837;-67
2023/06/18 09:34:50;;;;;;;;;16.75;14.50;;;;;24.23;45.12;101271.00;5042135;28;8837;-68
2023/06/18 09:37:19;;;;;;;;;14.50;14.00;;;;;24.27;46.20;101259.16;5029940;28;8913;-68
2023/06/18 09:39:46;;;;;;;;;11.50;11.50;;;;;24.28;46.87;101269.06;5027716;28;8866;-67
2023/06/18 09:42:13;;;;;;;;;15.00;13.00;;;;;24.26;46.36;101267.69;5015763;28;9621;-68
2023/06/18 09:44:45;;;;;;;;;14.75;14.00;;;;;24.25;45.98;101271.53;5017182;28;8827;-67
2023/06/18 09:47:14;;;;;;;;;11.50;11.50;;;;;24.24;46.15;101272.66;5022710;28;9520;-67
2023/06/18 09:49:46;;;;;;;;;14.75;14.75;;;;;24.21;46.07;101263.00;5028840;28;8869;-67
2023/06/18 09:52:15;;;;;;;;;16.50;14.75;;;;;24.24;46.74;101264.41;5030112;28;8813;-67
2023/06/18 09:54:43;;;;;;;;;12.00;11.50;;;;;24.24;46.87;101259.72;5022318;28;8853;-67
2023/06/18 09:57:12;;;;;;;;;14.50;12.75;;;;;24.26;46.37;101270.44;5035711;28;8837;-68
2023/06/18 09:59:38;;;;;;;;;13.00;12.00;;;;;24.26;46.10;101263.00;5018619;28;8843;-68
2023/06/18 10:02:07;;;;;;;;;13.00;11.75;;;;;24.29;46.34;101258.88;5024869;28;8852;-69
2023/06/18 10:04:33;;;;;;;;;13.50;13.50;;;;;24.32;46.50;101266.59;5019638;28;8949;-67
2023/06/18 10:07:03;;;;;;;;;13.50;13.25;;;;;24.37;46.49;101261.06;5028166;28;8897;-66
2023/06/18 10:09:36;;;;;;;;;13.25;12.50;;;;;24.42;46.66;101258.34;5021266;28;8831;-67
2023/06/18 10:12:05;;;;;;;;;10.00;10.00;;;;;24.46;46.50;101264.94;5030564;28;8820;-69
2023/06/18 10:14:33;;;;;;;;;13.00;13.00;;;;;24.49;46.31;101264.41;5026414;28;8862;-66
2023/06/18 10:17:14;;;;;;;;;18.75;18.75;;;;;24.51;45.29;101258.59;5026475;28;8829;-67
2023/06/18 10:19:52;;;;;;;;;19.50;19.50;;;;;24.53;45.53;101259.16;5026759;28;8910;-66
2023/06/18 10:22:20;;;;;;;;;20.25;19.50;;;;;24.51;45.06;101258.59;5029973;28;8858;-67
2023/06/18 10:25:01;;;;;;;;;14.25;14.25;;;;;24.49;45.55;101253.38;5031064;28;9576;-66
2023/06/18 10:27:28;;;;;;;;;12.25;12.25;;;;;24.53;45.84;101256.41;5025417;28;8845;-66
2023/06/18 10:29:59;;;;;;;;;12.25;12.25;;;;;24.59;46.28;101252.53;5020113;28;8856;-68
2023/06/18 10:32:28;;;;;;;;;12.25;11.25;;;;;24.63;45.96;101248.13;5014323;28;8854;-68
2023/06/18 10:34:57;;;;;;;;;11.00;11.00;;;;;24.70;46.07;101242.34;5030032;28;8844;-67
2023/06/18 10:37:26;;;;;;;;;14.75;14.75;;;;;24.70;45.87;101243.16;5014702;28;8839;-67
2023/06/18 10:39:54;;;;;;;;;16.50;16.50;;;;;24.74;46.09;101248.94;5025049;28;8863;-67
2023/06/18 10:42:21;;;;;;;;;18.75;17.75;;;;;24.73;45.59;101239.03;5008691;28;8893;-66
2023/06/18 10:44:47;;;;;;;;;18.50;17.00;;;;;24.77;45.52;101238.19;5009675;28;8847;-67
2023/06/18 10:47:21;;;;;;;;;16.25;15.50;;;;;24.80;46.08;101237.63;5010122;28;8916;-66
2023/06/18 10:50:08;;;;;;;;;16.00;16.00;;;;;24.82;45.51;101227.16;5039425;28;8969;-67
2023/06/18 10:52:40;;;;;;;;;14.00;14.00;;;;;24.83;45.39;101231.59;5040342;28;8802;-67
2023/06/18 10:55:24;;;;;;;;;18.50;15.50;;;;;24.84;45.31;101224.13;5049152;28;8850;-67
2023/06/18 10:58:03;;;;;;;;;21.50;18.75;;;;;24.85;44.71;101229.34;5049604;28;8814;-66
2023/06/18 11:00:40;;;;;;;;;18.25;17.25;;;;;24.83;44.92;101228.81;5033274;28;8859;-68
2023/06/18 11:03:17;;;;;;;;;21.50;21.25;;;;;24.82;45.21;101229.09;5021207;28;8883;-66
2023/06/18 11:05:51;;;;;;;;;15.00;14.25;;;;;24.83;45.49;101230.72;5042742;28;8854;-68
2023/06/18 11:08:27;;;;;;;;;13.50;13.00;;;;;24.86;45.73;101228.25;5026619;28;9535;-68
2023/06/18 11:11:02;;;;;;;;;14.25;12.75;;;;;24.90;45.45;101229.34;5029880;28;8850;-69
2023/06/18 11:13:32;;;;;;;;;14.00;14.00;;;;;24.92;45.44;101234.56;5024186;28;8832;-68
2023/06/18 11:16:09;;;;;;;;;16.75;16.75;;;;;24.92;45.04;101232.66;5032243;28;8826;-68
2023/06/18 11:18:36;;;;;;;;;16.00;15.50;;;;;24.90;45.38;101226.56;5014270;28;8851;-67
2023/06/18 11:21:03;;;;;;;;;16.75;15.50;;;;;24.89;45.05;101235.13;5009560;28;8839;-68
2023/06/18 11:23:31;;;;;;;;;18.00;17.50;;;;;24.85;44.28;101226.59;5017453;28;8829;-68
2023/06/18 11:25:58;;;;;;;;;17.00;17.00;;;;;24.87;44.92;101229.91;5016877;28;8839;-68
2023/06/18 11:28:25;;;;;;;;;17.50;14.75;;;;;24.90;44.89;101228.50;5035787;28;8830;-69